Airfield :
LOGIN :

Register | Disclaimer

   EN    FR    IT 

 










Legend :    VFR   Marginal VFR   IFR   Intensive IFR   Very Intensive IFR
Visi :
Ceiling :
>= 8 km
>= 3000ft
5 to 8 km
1000 to 3000 ft
1500m to 5 km
500 to 1000 ft
800 to 1500m
200 to 500 ft
< 800m
< 200 ft
Symbols :   Thunderstorms  Fog  Heavy snow  Heavy precipitations  Wind > 20 kt
SIGMETs :     Misc.  Thunderstorms  Icing  Turbulence  Mountain Waves  Volcanic Ashes






- Airport Elevation : 23 ft
- IATA code : XFW


EDHI - Hamburg Finkenwerder

CURRENT METAR :
  • 240350Z AUTO 25006KT 0550 0500 R23/0650N // VV002 M00/M00 Q1023

EXPIRED METARs :
  • 240320Z AUTO 25006KT 0500 0450 R23/0900U // VV002 M00/M00 Q1023
  • 240250Z AUTO 23005KT 0450 R23/0550N // VV001 M00/M01 Q1023
  • 240220Z AUTO 24006KT 0500 0450 R23/0600N // VV002 M00/M00 Q1024
  • 240150Z AUTO 24005KT 0400 R23/0550N // VV002 M00/M00 Q1024
  • 240120Z AUTO 25005KT 0400 R23/0550N // VV001 M00/M00 Q1025

Expired Forecast.



MET'MAP, your aeronautical weather chart ! - Copyright ORBIFLY December 2007 - Disclaimer

ORBIFLY MET'MAP TEAM :

Programming & Development : Alexandra Zaïnal
Concept & original design : Baudouin d'Aumeries
Assistance for programming : Marc-Olivier Méhu
Technical & hardware support : Manuel Goepfert

Contact : metmap@orbifly.com




SOURCES & CREDITS :

   NOAA